createdAt,value
2019-01-17T00:03:13.591Z,46.30
2019-01-17T00:07:45.177Z,55.40
2019-01-17T00:12:05.071Z,51.23
2019-01-17T00:16:34.075Z,47.30
2019-01-17T00:20:57.815Z,44.30
2019-01-17T00:25:14.513Z,44.97
2019-01-17T00:29:39.710Z,46.63
2019-01-17T00:34:07.909Z,46.87
2019-01-17T00:38:41.905Z,46.97
2019-01-17T00:43:09.269Z,47.37
2019-01-17T00:47:28.927Z,48.43
2019-01-17T00:52:03.369Z,49.07
2019-01-17T00:56:30.379Z,51.17
2019-01-17T01:00:47.644Z,51.23
2019-01-17T01:05:11.460Z,44.83
2019-01-17T01:09:36.062Z,48.00
2019-01-17T01:14:08.353Z,52.73
2019-01-17T01:18:36.751Z,52.30
2019-01-17T01:23:00.290Z,50.27
2019-01-17T01:27:15.793Z,57.30
2019-01-17T01:36:05.040Z,55.23
2019-01-17T01:40:30.265Z,52.83
2019-01-17T01:44:57.580Z,53.73
2019-01-17T01:49:25.864Z,59.17
2019-01-17T01:53:32.668Z,53.93
2019-01-17T01:57:39.061Z,49.93
2019-01-17T02:01:46.891Z,56.50
2019-01-17T02:05:56.342Z,50.57
2019-01-17T02:10:03.012Z,54.33
2019-01-17T02:14:09.690Z,56.13
2019-01-17T02:18:16.473Z,53.70
2019-01-17T02:22:22.823Z,50.07
2019-01-17T02:26:30.318Z,48.23
2019-01-17T02:30:37.188Z,46.73
2019-01-17T02:34:44.814Z,50.57
2019-01-17T02:38:51.119Z,47.30
2019-01-17T02:42:57.608Z,51.50
2019-01-17T02:47:05.941Z,48.97
2019-01-17T02:51:13.452Z,46.10
2019-01-17T02:55:19.865Z,50.57
2019-01-17T02:59:26.208Z,48.10
2019-01-17T03:03:33.025Z,50.60
2019-01-17T03:07:40.231Z,50.67
2019-01-17T03:11:46.530Z,56.93
2019-01-17T03:15:53.007Z,56.70
2019-01-17T03:19:59.325Z,56.57
2019-01-17T03:24:06.814Z,56.67
2019-01-17T03:28:13.165Z,61.80
2019-01-17T03:32:19.764Z,62.77
2019-01-17T03:36:26.210Z,59.13
2019-01-17T03:40:34.070Z,60.83
2019-01-17T03:44:40.357Z,61.20
2019-01-17T03:48:48.408Z,64.63
2019-01-17T03:52:54.699Z,64.07
2019-01-17T03:57:03.718Z,59.43
2019-01-17T04:01:09.976Z,61.63
2019-01-17T04:05:17.496Z,62.93
2019-01-17T04:09:23.871Z,67.03
2019-01-17T04:13:31.219Z,60.70
2019-01-17T04:17:37.549Z,60.03
2019-01-17T04:21:44.369Z,57.37
2019-01-17T04:25:50.636Z,59.03
2019-01-17T04:29:57.798Z,57.70
2019-01-17T04:34:06.923Z,62.33
2019-01-17T04:38:13.202Z,58.70
2019-01-17T04:42:19.480Z,64.03
2019-01-17T04:46:26.811Z,62.43
2019-01-17T04:50:33.839Z,53.13
2019-01-17T04:54:40.350Z,59.13
2019-01-17T04:58:46.636Z,48.23
2019-01-17T05:02:53.925Z,57.10
2019-01-17T05:07:00.220Z,51.03
2019-01-17T05:11:06.707Z,54.13
2019-01-17T05:15:16.135Z,44.97
2019-01-17T05:19:22.702Z,49.77
2019-01-17T05:23:28.968Z,51.10
2019-01-17T05:27:35.442Z,43.23
2019-01-17T05:31:41.875Z,50.63
2019-01-17T05:35:50.652Z,46.30
2019-01-17T05:39:56.923Z,48.10
2019-01-17T05:44:03.368Z,53.17
2019-01-17T05:48:09.633Z,48.73
2019-01-17T05:52:17.790Z,41.40
2019-01-17T05:56:24.120Z,46.23
2019-01-17T06:00:31.813Z,48.33
2019-01-17T06:04:38.120Z,42.23
2019-01-17T06:08:45.294Z,34.30
2019-01-17T06:12:52.570Z,33.07
2019-01-17T06:16:59.145Z,37.57
2019-01-17T06:21:05.422Z,39.27
2019-01-17T06:25:12.880Z,44.67
2019-01-17T06:29:19.209Z,42.27
2019-01-17T06:39:02.532Z,38.87
2019-01-17T06:40:55.469Z,41.33
2019-01-17T06:43:11.601Z,38.90
2019-01-17T06:47:17.894Z,32.30
2019-01-17T06:51:24.650Z,36.43
2019-01-17T06:55:34.536Z,37.60
2019-01-17T06:59:40.357Z,34.60
2019-01-17T07:03:46.629Z,37.73
2019-01-17T07:07:53.232Z,35.70
2019-01-17T07:11:59.487Z,36.30
2019-01-17T07:16:06.976Z,39.97
2019-01-17T07:20:16.811Z,38.47
2019-01-17T07:24:23.291Z,50.30
2019-01-17T07:28:29.611Z,42.40
2019-01-17T07:32:36.991Z,44.67
2019-01-17T07:36:43.339Z,64.27
2019-01-17T07:40:51.863Z,125.40
2019-01-17T07:44:58.772Z,63.27
2019-01-17T07:49:05.324Z,42.07
2019-01-17T07:53:11.646Z,53.60
2019-01-17T07:57:19.444Z,30.60
2019-01-17T08:01:25.711Z,26.07
2019-01-17T08:05:32.827Z,23.93
2019-01-17T08:09:39.193Z,23.93
2019-01-17T08:13:45.549Z,26.00
2019-01-17T08:17:51.894Z,17.30
2019-01-17T08:21:59.346Z,25.40
2019-01-17T08:26:05.676Z,20.70
2019-01-17T08:30:15.125Z,20.90
2019-01-17T08:34:28.270Z,24.77
2019-01-17T08:38:32.101Z,22.47
2019-01-17T08:42:38.362Z,24.73
2019-01-17T08:46:44.972Z,24.57
2019-01-17T08:50:51.250Z,24.00
2019-01-17T08:54:58.680Z,30.17
2019-01-17T08:59:06.055Z,28.93
2019-01-17T09:03:13.416Z,28.80
2019-01-17T09:07:19.799Z,24.90
2019-01-17T09:11:27.321Z,20.93
2019-01-17T09:15:35.300Z,27.13
2019-01-17T09:19:41.701Z,23.47
2019-01-17T09:23:48.058Z,27.50
2019-01-17T09:27:55.650Z,27.70
2019-01-17T09:32:01.983Z,26.53
2019-01-17T09:36:08.806Z,26.47
2019-01-17T09:40:17.131Z,25.53
2019-01-17T09:44:26.998Z,28.37
2019-01-17T09:48:33.444Z,21.40
2019-01-17T09:52:39.831Z,33.27
2019-01-17T09:56:46.271Z,23.10
2019-01-17T10:00:54.315Z,31.20
2019-01-17T10:05:00.927Z,33.90
2019-01-17T10:09:08.909Z,29.97
2019-01-17T10:13:15.203Z,29.13
2019-01-17T10:17:51.843Z,22.53
2019-01-17T10:22:45.032Z,27.00
2019-01-17T10:27:09.971Z,27.63
2019-01-17T10:31:52.064Z,19.97
2019-01-17T10:36:42.219Z,15.63
2019-01-17T10:41:21.857Z,20.60
2019-01-17T10:46:03.377Z,28.20
2019-01-17T10:50:40.574Z,21.20
2019-01-17T10:55:16.306Z,22.57
2019-01-17T10:59:42.727Z,21.07
2019-01-17T11:04:36.290Z,22.13
2019-01-17T11:09:35.358Z,25.07
2019-01-17T11:14:08.347Z,27.63
2019-01-17T11:19:06.539Z,30.53
2019-01-17T11:23:36.722Z,27.70
2019-01-17T11:28:15.737Z,27.23
2019-01-17T11:32:42.155Z,31.63
2019-01-17T11:37:28.068Z,29.30
2019-01-17T11:41:45.957Z,29.63
2019-01-17T11:46:34.173Z,26.43
2019-01-17T11:50:57.955Z,32.23
2019-01-17T11:55:36.078Z,28.33
2019-01-17T12:00:13.627Z,28.17
2019-01-17T12:04:34.693Z,29.20
2019-01-17T12:08:42.095Z,26.43
2019-01-17T12:12:48.597Z,28.20
2019-01-17T12:16:55.208Z,31.43
2019-01-17T12:21:01.510Z,28.50
2019-01-17T12:25:09.237Z,33.57
2019-01-17T12:29:15.481Z,32.87
2019-01-17T12:33:22.185Z,30.70
2019-01-17T12:37:28.636Z,31.70
2019-01-17T12:41:38.252Z,22.93
2019-01-17T12:45:44.528Z,34.37
2019-01-17T12:49:50.945Z,24.03
2019-01-17T12:53:57.253Z,28.07
2019-01-17T12:58:04.814Z,32.20
2019-01-17T13:02:11.246Z,31.17
2019-01-17T13:06:18.126Z,30.37
2019-01-17T13:10:24.465Z,31.93
2019-01-17T13:14:32.833Z,30.60
2019-01-17T13:18:42.073Z,32.27
2019-01-17T13:22:48.782Z,33.27
2019-01-17T13:27:00.690Z,29.70
2019-01-17T13:31:04.399Z,28.10
2019-01-17T13:35:10.825Z,33.10
2019-01-17T13:39:17.436Z,36.27
2019-01-17T13:43:23.748Z,30.53
2019-01-17T13:47:31.270Z,31.37
2019-01-17T13:51:37.721Z,31.07
2019-01-17T13:55:46.849Z,27.13
2019-01-17T13:59:53.347Z,30.43
2019-01-17T14:04:00.013Z,32.77
2019-01-17T14:08:06.964Z,29.53
2019-01-17T14:12:14.302Z,31.27
2019-01-17T14:16:20.639Z,26.43
2019-01-17T14:20:28.403Z,31.80
2019-01-17T14:24:34.735Z,32.10
2019-01-17T14:28:41.908Z,31.87
2019-01-17T14:32:49.788Z,30.73
2019-01-17T14:36:57.422Z,28.97
2019-01-17T14:41:03.783Z,30.27
2019-01-17T14:45:13.244Z,33.33
2019-01-17T14:49:19.574Z,31.33
2019-01-17T14:53:26.144Z,28.53
2019-01-17T14:57:33.413Z,35.17
2019-01-17T15:01:43.475Z,30.17
2019-01-17T15:05:52.913Z,33.33
2019-01-17T15:10:00.797Z,32.17
2019-01-17T15:14:07.423Z,32.30
2019-01-17T15:18:14.008Z,30.47
2019-01-17T15:22:21.974Z,32.30
2019-01-17T15:26:30.069Z,38.93
2019-01-17T15:30:36.340Z,31.60
2019-01-17T15:34:43.604Z,32.50
2019-01-17T15:38:51.208Z,36.60
2019-01-17T15:42:58.657Z,34.27
2019-01-17T15:47:05.942Z,35.20
2019-01-17T15:51:12.707Z,36.63
2019-01-17T15:55:19.383Z,29.03
2019-01-17T15:59:26.750Z,28.60
2019-01-17T16:03:36.181Z,34.13
2019-01-17T16:07:43.073Z,34.67
2019-01-17T16:11:53.669Z,38.90
2019-01-17T16:16:01.594Z,36.47
2019-01-17T16:20:08.876Z,31.33
2019-01-17T16:24:15.769Z,32.20
2019-01-17T16:28:22.147Z,40.80
2019-01-17T16:32:29.699Z,38.97
2019-01-17T16:36:36.377Z,38.50
2019-01-17T16:40:43.003Z,40.87
2019-01-17T16:44:49.390Z,37.10
2019-01-17T16:48:57.717Z,36.80
2019-01-17T16:53:04.084Z,43.53
2019-01-17T16:57:11.062Z,45.10
2019-01-17T17:01:17.326Z,49.07
2019-01-17T17:05:25.138Z,62.53
2019-01-17T17:09:31.524Z,59.70
2019-01-17T17:13:41.839Z,58.50
2019-01-17T17:17:48.140Z,49.43
2019-01-17T17:21:56.538Z,50.20
2019-01-17T17:26:02.768Z,44.30
2019-01-17T17:30:12.952Z,42.30
2019-01-17T17:34:20.302Z,46.03
2019-01-17T17:38:28.255Z,50.43
2019-01-17T17:42:34.550Z,45.43
2019-01-17T17:46:41.414Z,44.17
2019-01-17T17:50:47.819Z,38.90
2019-01-17T17:54:55.402Z,47.90
2019-01-17T17:59:01.767Z,42.03
2019-01-17T18:03:08.276Z,50.43
2019-01-17T18:07:14.584Z,47.03
2019-01-17T18:11:23.100Z,49.83
2019-01-17T18:15:29.543Z,46.37
2019-01-17T18:19:36.179Z,55.70
2019-01-17T18:23:42.476Z,51.40
2019-01-17T18:27:49.591Z,54.30
2019-01-17T18:31:55.914Z,51.40
2019-01-17T18:36:03.925Z,51.03
2019-01-17T18:40:11.969Z,47.33
2019-01-17T18:44:20.419Z,54.27
2019-01-17T18:48:26.667Z,49.80
2019-01-17T18:52:33.600Z,53.80
2019-01-17T18:56:41.556Z,49.07
2019-01-17T19:00:49.949Z,45.50
2019-01-17T19:04:56.211Z,51.87
2019-01-17T19:09:03.123Z,52.90
2019-01-17T19:13:10.978Z,55.47
2019-01-17T19:17:20.109Z,51.00
2019-01-17T19:21:26.355Z,58.13
2019-01-17T19:25:33.020Z,62.17
2019-01-17T19:29:39.274Z,62.00
2019-01-17T19:33:46.228Z,58.13
2019-01-17T19:37:52.614Z,60.93
2019-01-17T19:41:59.112Z,61.90
2019-01-17T19:46:05.711Z,57.40
2019-01-17T19:50:28.314Z,64.83
2019-01-17T19:54:34.649Z,56.70
2019-01-17T19:58:41.132Z,51.37
2019-01-17T20:02:48.636Z,53.70
2019-01-17T20:06:56.090Z,54.33
2019-01-17T20:11:02.874Z,53.50
2019-01-17T20:15:12.915Z,55.57
2019-01-17T20:19:23.301Z,52.87
2019-01-17T20:23:30.661Z,51.00
2019-01-17T20:27:37.032Z,52.03
2019-01-17T20:31:43.627Z,52.20
2019-01-17T20:35:49.904Z,48.40
2019-01-17T20:39:59.893Z,44.40
2019-01-17T20:44:15.107Z,44.67
2019-01-17T20:48:29.548Z,47.70
2019-01-17T20:52:51.097Z,49.77
2019-01-17T20:57:40.379Z,47.07
2019-01-17T21:02:39.944Z,50.93
2019-01-17T21:07:52.209Z,49.20
2019-01-17T21:11:41.415Z,47.47
2019-01-17T21:16:39.453Z,48.83
2019-01-17T21:21:06.907Z,43.07
2019-01-17T21:35:35.363Z,46.00
2019-01-17T21:39:58.574Z,49.03
2019-01-17T21:44:10.003Z,50.63
2019-01-17T21:53:04.653Z,54.97
2019-01-17T21:57:12.038Z,64.63
2019-01-17T22:01:18.360Z,62.83
2019-01-17T22:05:24.935Z,63.87
2019-01-17T22:09:31.200Z,57.77
2019-01-17T22:13:37.850Z,63.57
2019-01-17T22:17:44.131Z,55.90
2019-01-17T22:21:52.965Z,56.47
2019-01-17T22:25:59.256Z,45.97
2019-01-17T22:30:08.753Z,46.90
2019-01-17T22:34:15.104Z,48.63
2019-01-17T22:38:22.162Z,37.63
2019-01-17T22:42:28.479Z,36.70
2019-01-17T22:46:35.053Z,26.03
2019-01-17T22:50:41.336Z,23.47
2019-01-17T22:54:48.032Z,23.37
2019-01-17T22:58:54.357Z,26.40
2019-01-17T23:03:00.860Z,28.00
2019-01-17T23:07:07.208Z,32.67
2019-01-17T23:11:13.705Z,36.83
2019-01-17T23:15:21.739Z,43.97
2019-01-17T23:19:28.801Z,45.63
2019-01-17T23:23:38.412Z,41.20
2019-01-17T23:27:44.911Z,40.70
2019-01-17T23:31:51.211Z,46.57
2019-01-17T23:35:59.901Z,51.27
2019-01-17T23:40:06.658Z,48.47
2019-01-17T23:44:13.197Z,50.37
2019-01-17T23:48:22.296Z,45.93
2019-01-17T23:52:29.022Z,44.80
2019-01-17T23:56:35.299Z,50.83
